createdAt,value
2019-05-05T00:02:20.901Z,2.76
2019-05-05T00:04:50.987Z,2.74
2019-05-05T00:07:21.238Z,2.72
2019-05-05T00:09:49.673Z,2.71
2019-05-05T00:12:19.902Z,2.71
2019-05-05T00:14:50.280Z,2.71
2019-05-05T00:17:20.342Z,2.67
2019-05-05T00:19:48.763Z,2.65
2019-05-05T00:22:17.286Z,2.62
2019-05-05T00:24:45.871Z,2.58
2019-05-05T00:27:15.070Z,2.53
2019-05-05T00:29:45.361Z,2.49
2019-05-05T00:32:15.259Z,2.46
2019-05-05T00:34:44.611Z,2.42
2019-05-05T00:37:15.227Z,2.41
2019-05-05T00:39:45.173Z,2.39
2019-05-05T00:42:15.411Z,2.35
2019-05-05T00:44:44.778Z,2.33
2019-05-05T00:47:21.023Z,2.29
2019-05-05T00:49:51.100Z,2.26
2019-05-05T00:52:19.518Z,2.25
2019-05-05T00:54:47.978Z,2.20
2019-05-05T00:57:16.446Z,2.18
2019-05-05T00:59:45.340Z,2.15
2019-05-05T01:02:15.643Z,2.13
2019-05-05T01:04:45.733Z,2.09
2019-05-05T01:07:14.351Z,2.06
2019-05-05T01:09:45.125Z,2.02
2019-05-05T01:12:15.062Z,2.01
2019-05-05T01:14:44.741Z,1.99
2019-05-05T01:17:14.735Z,1.99
2019-05-05T01:19:45.387Z,1.99
2019-05-05T01:22:14.383Z,1.98
2019-05-05T01:24:43.182Z,1.99
2019-05-05T01:27:12.194Z,1.99
2019-05-05T01:29:40.632Z,1.97
2019-05-05T01:32:10.935Z,1.93
2019-05-05T01:34:41.060Z,1.89
2019-05-05T01:37:11.107Z,1.85
2019-05-05T01:39:51.473Z,1.83
2019-05-05T01:42:20.057Z,1.82
2019-05-05T01:44:48.483Z,1.82
2019-05-05T01:47:16.981Z,1.84
2019-05-05T01:49:45.565Z,1.84
2019-05-05T01:52:14.874Z,1.83
2019-05-05T01:54:44.595Z,1.82
2019-05-05T01:57:14.831Z,1.82
2019-05-05T01:59:44.772Z,1.82
2019-05-05T02:02:14.676Z,1.82
2019-05-05T02:04:44.776Z,1.82
2019-05-05T02:07:14.545Z,1.83
2019-05-05T02:09:44.917Z,1.85
2019-05-05T02:12:15.227Z,1.89
2019-05-05T02:14:44.471Z,1.91
2019-05-05T02:17:14.395Z,1.90
2019-05-05T02:19:44.390Z,1.90
2019-05-05T02:22:14.667Z,1.90
2019-05-05T02:24:44.482Z,1.88
2019-05-05T02:27:14.576Z,1.84
2019-05-05T02:29:47.484Z,1.84
2019-05-05T02:32:17.850Z,1.81
2019-05-05T02:34:47.920Z,1.81
2019-05-05T02:37:16.354Z,1.78
2019-05-05T02:39:57.254Z,1.76
2019-05-05T02:42:17.025Z,1.76
2019-05-05T02:44:45.980Z,1.77
2019-05-05T02:47:18.004Z,1.77
2019-05-05T02:49:45.981Z,1.76
2019-05-05T02:52:15.702Z,1.75
2019-05-05T02:54:45.161Z,1.72
2019-05-05T02:57:15.105Z,1.69
2019-05-05T02:59:45.901Z,1.66
2019-05-05T03:02:17.056Z,1.66
2019-05-05T03:04:46.555Z,1.66
2019-05-05T03:07:17.719Z,1.68
2019-05-05T03:09:48.549Z,1.67
2019-05-05T03:12:19.780Z,1.68
2019-05-05T03:14:50.155Z,1.66
2019-05-05T03:17:19.338Z,1.62
2019-05-05T03:19:48.902Z,1.61
2019-05-05T03:22:18.326Z,1.59
2019-05-05T03:24:46.775Z,1.57
2019-05-05T03:27:15.374Z,1.55
2019-05-05T03:29:44.348Z,1.54
2019-05-05T03:32:16.035Z,1.57
2019-05-05T03:34:44.590Z,1.58
2019-05-05T03:37:14.657Z,1.60
2019-05-05T03:39:45.297Z,1.59
2019-05-05T03:42:24.615Z,1.59
2019-05-05T03:44:55.305Z,1.61
2019-05-05T03:47:24.144Z,1.62
2019-05-05T03:49:53.559Z,1.65
2019-05-05T03:52:24.452Z,1.66
2019-05-05T03:54:54.246Z,1.66
2019-05-05T03:57:24.598Z,1.66
2019-05-05T03:59:54.767Z,1.68
2019-05-05T04:02:25.338Z,1.70
2019-05-05T04:04:55.403Z,1.74
2019-05-05T04:07:24.306Z,1.78
2019-05-05T04:09:54.244Z,1.83
2019-05-05T04:12:24.143Z,1.88
2019-05-05T04:14:54.573Z,1.92
2019-05-05T04:17:24.881Z,1.97
2019-05-05T04:19:54.952Z,2.00
2019-05-05T04:22:23.812Z,2.03
2019-05-05T04:24:54.135Z,2.07
2019-05-05T04:27:23.892Z,2.08
2019-05-05T04:29:54.325Z,2.12
2019-05-05T04:32:24.430Z,2.17
2019-05-05T04:34:54.324Z,2.22
2019-05-05T04:37:23.899Z,2.27
2019-05-05T04:39:53.728Z,2.33
2019-05-05T04:42:23.965Z,2.40
2019-05-05T04:44:53.800Z,2.47
2019-05-05T04:47:29.775Z,2.53
2019-05-05T04:50:05.718Z,2.60
2019-05-05T04:52:34.588Z,2.67
2019-05-05T04:55:03.937Z,2.74
2019-05-05T04:57:32.493Z,2.82
2019-05-05T05:00:00.998Z,2.89
2019-05-05T05:02:34.244Z,2.97
2019-05-05T05:05:10.524Z,3.07
2019-05-05T05:07:39.135Z,3.16
2019-05-05T05:10:08.105Z,3.27
2019-05-05T05:12:36.569Z,3.37
2019-05-05T05:15:06.132Z,3.47
2019-05-05T05:17:36.253Z,3.57
2019-05-05T05:20:06.941Z,3.67
2019-05-05T05:22:35.310Z,3.80
2019-05-05T05:25:04.582Z,3.93
2019-05-05T05:27:33.645Z,4.06
2019-05-05T05:30:04.544Z,4.18
2019-05-05T05:32:33.979Z,4.30
2019-05-05T05:35:03.900Z,4.41
2019-05-05T05:37:34.160Z,4.55
2019-05-05T05:40:07.036Z,4.66
2019-05-05T05:42:35.473Z,4.79
2019-05-05T05:45:14.591Z,4.91
2019-05-05T05:47:56.915Z,5.04
2019-05-05T05:50:29.403Z,5.18
2019-05-05T05:52:57.810Z,5.30
2019-05-05T05:55:26.400Z,5.46
2019-05-05T05:57:54.821Z,5.59
2019-05-05T06:00:23.813Z,5.71
2019-05-05T06:02:54.496Z,5.82
2019-05-05T06:05:23.838Z,5.92
2019-05-05T06:07:54.469Z,6.01
2019-05-05T06:10:26.652Z,6.08
2019-05-05T06:12:54.687Z,6.14
2019-05-05T06:15:24.471Z,6.23
2019-05-05T06:17:53.944Z,6.31
2019-05-05T06:20:23.890Z,6.38
2019-05-05T06:22:53.605Z,6.47
2019-05-05T06:25:26.220Z,6.55
2019-05-05T06:27:54.018Z,6.64
2019-05-05T06:30:24.388Z,6.70
2019-05-05T06:32:54.363Z,6.79
2019-05-05T06:35:24.432Z,6.87
2019-05-05T06:37:55.622Z,6.95
2019-05-05T06:40:35.411Z,7.01
2019-05-05T06:43:14.403Z,7.07
2019-05-05T06:45:49.911Z,7.16
2019-05-05T06:48:18.329Z,7.25
2019-05-05T06:50:47.006Z,7.35
2019-05-05T06:53:15.452Z,7.46
2019-05-05T06:55:44.445Z,7.57
2019-05-05T06:58:13.672Z,7.70
2019-05-05T07:00:44.114Z,7.79
2019-05-05T07:03:13.902Z,7.85
2019-05-05T07:05:43.797Z,7.92
2019-05-05T07:08:13.800Z,8.00
2019-05-05T07:10:44.264Z,8.10
2019-05-05T07:13:14.038Z,8.20
2019-05-05T07:15:43.901Z,8.29
2019-05-05T07:18:14.277Z,8.38
2019-05-05T07:20:44.067Z,8.48
2019-05-05T07:23:14.478Z,8.57
2019-05-05T07:25:45.797Z,8.64
2019-05-05T07:28:14.817Z,8.70
2019-05-05T07:30:44.266Z,8.76
2019-05-05T07:33:14.975Z,8.85
2019-05-05T07:35:58.675Z,8.92
2019-05-05T07:38:18.696Z,8.99
2019-05-05T07:40:47.422Z,9.08
2019-05-05T07:43:15.909Z,9.21
2019-05-05T07:45:44.643Z,9.35
2019-05-05T07:48:13.916Z,9.49
2019-05-05T07:50:44.969Z,9.65
2019-05-05T07:53:17.566Z,9.77
2019-05-05T07:55:43.806Z,9.91
2019-05-05T07:58:13.895Z,10.10
2019-05-05T08:00:43.653Z,10.28
2019-05-05T08:03:14.387Z,10.38
2019-05-05T08:05:44.208Z,10.40
2019-05-05T08:08:13.919Z,10.38
2019-05-05T08:10:43.874Z,10.39
2019-05-05T08:13:14.284Z,10.39
2019-05-05T08:15:56.272Z,10.41
2019-05-05T08:18:24.345Z,10.54
2019-05-05T08:20:54.800Z,10.80
2019-05-05T08:23:31.783Z,10.98
2019-05-05T08:25:57.584Z,11.02
2019-05-05T08:28:31.547Z,10.96
2019-05-05T08:31:03.808Z,10.85
2019-05-05T08:33:33.636Z,10.74
2019-05-05T08:36:04.546Z,10.66
2019-05-05T08:38:34.721Z,10.65
2019-05-05T08:41:05.797Z,10.71
2019-05-05T08:43:35.044Z,10.92
2019-05-05T08:46:04.926Z,11.11
2019-05-05T08:48:34.293Z,11.13
2019-05-05T08:51:04.915Z,11.11
2019-05-05T08:53:42.582Z,11.07
2019-05-05T08:56:04.712Z,11.14
2019-05-05T08:58:34.424Z,11.27
2019-05-05T09:01:04.491Z,11.51
2019-05-05T09:03:34.513Z,11.68
2019-05-05T09:06:04.719Z,11.78
2019-05-05T09:08:34.698Z,11.91
2019-05-05T09:11:04.809Z,12.06
2019-05-05T09:13:34.040Z,12.16
2019-05-05T09:16:03.749Z,12.21
2019-05-05T09:18:33.914Z,12.33
2019-05-05T09:21:04.406Z,12.33
2019-05-05T09:23:35.180Z,12.26
2019-05-05T09:26:13.781Z,12.21
2019-05-05T09:28:44.671Z,12.18
2019-05-05T09:31:14.707Z,12.23
2019-05-05T09:33:45.176Z,12.37
2019-05-05T09:36:14.237Z,12.54
2019-05-05T09:38:45.025Z,12.65
2019-05-05T09:41:16.085Z,12.76
2019-05-05T09:43:46.520Z,12.77
2019-05-05T09:46:15.771Z,12.64
2019-05-05T09:48:44.952Z,12.43
2019-05-05T09:51:13.951Z,12.28
2019-05-05T09:53:44.838Z,12.24
2019-05-05T09:56:14.685Z,12.25
2019-05-05T09:58:44.285Z,12.34
2019-05-05T10:01:15.132Z,12.57
2019-05-05T10:03:44.730Z,12.71
2019-05-05T10:06:14.216Z,12.66
2019-05-05T10:08:44.631Z,12.39
2019-05-05T10:11:16.371Z,12.12
2019-05-05T10:13:44.366Z,11.86
2019-05-05T10:16:14.418Z,11.62
2019-05-05T10:18:44.869Z,11.41
2019-05-05T10:21:17.472Z,11.28
2019-05-05T10:23:46.407Z,11.25
2019-05-05T10:26:15.869Z,11.30
2019-05-05T10:28:46.626Z,11.34
2019-05-05T10:31:15.927Z,11.40
2019-05-05T10:33:49.867Z,11.47
2019-05-05T10:36:20.895Z,11.56
2019-05-05T10:38:56.150Z,11.63
2019-05-05T10:41:25.893Z,11.64
2019-05-05T10:43:56.005Z,11.68
2019-05-05T10:46:26.488Z,11.75
2019-05-05T10:48:59.628Z,11.78
2019-05-05T10:51:29.573Z,11.81
2019-05-05T10:53:58.599Z,11.88
2019-05-05T10:56:28.044Z,11.95
2019-05-05T10:58:57.540Z,12.00
2019-05-05T11:01:27.846Z,12.03
2019-05-05T11:03:56.943Z,12.09
2019-05-05T11:06:25.776Z,12.16
2019-05-05T11:08:54.684Z,12.26
2019-05-05T11:11:23.912Z,12.35
2019-05-05T11:13:54.263Z,12.42
2019-05-05T11:16:23.274Z,12.47
2019-05-05T11:18:54.057Z,12.56
2019-05-05T11:21:23.687Z,12.66
2019-05-05T11:23:53.913Z,12.70
2019-05-05T11:26:24.527Z,12.70
2019-05-05T11:28:53.876Z,12.68
2019-05-05T11:31:23.961Z,12.63
2019-05-05T11:33:54.371Z,12.55
2019-05-05T11:36:24.646Z,12.50
2019-05-05T11:38:54.584Z,12.48
2019-05-05T11:41:24.282Z,12.50
2019-05-05T11:43:53.555Z,12.50
2019-05-05T11:46:22.060Z,12.51
2019-05-05T11:48:50.499Z,12.54
2019-05-05T11:51:19.285Z,12.75
2019-05-05T11:53:47.902Z,13.13
2019-05-05T11:56:19.019Z,13.52
2019-05-05T11:58:48.695Z,13.84
2019-05-05T12:01:17.211Z,14.14
2019-05-05T12:03:45.603Z,14.38
2019-05-05T12:06:14.812Z,14.56
2019-05-05T12:08:45.748Z,14.54
2019-05-05T12:11:15.119Z,14.43
2019-05-05T12:13:44.940Z,14.33
2019-05-05T12:16:15.129Z,14.26
2019-05-05T12:18:44.875Z,14.21
2019-05-05T12:21:14.118Z,14.17
2019-05-05T12:23:44.455Z,14.10
2019-05-05T12:26:14.475Z,14.07
2019-05-05T12:28:45.086Z,13.94
2019-05-05T12:31:18.082Z,13.80
2019-05-05T12:33:46.709Z,13.60
2019-05-05T12:36:19.233Z,13.43
2019-05-05T12:38:48.026Z,13.27
2019-05-05T12:41:20.770Z,13.13
2019-05-05T12:43:49.950Z,13.05
2019-05-05T12:46:25.921Z,13.01
2019-05-05T12:48:56.151Z,13.03
2019-05-05T12:51:25.496Z,13.06
2019-05-05T12:53:54.286Z,13.07
2019-05-05T12:56:23.826Z,13.03
2019-05-05T12:59:05.386Z,13.12
2019-05-05T13:01:44.119Z,13.32
2019-05-05T17:07:37.892Z,13.44
2019-05-05T17:10:07.057Z,13.44
2019-05-05T17:12:35.531Z,12.86
2019-05-05T17:15:23.952Z,12.91
2019-05-05T17:17:56.902Z,13.00
2019-05-05T17:20:44.147Z,12.91
2019-05-05T17:23:15.530Z,12.80
2019-05-05T17:25:48.271Z,12.77
2019-05-05T17:28:17.647Z,12.67
2019-05-05T17:30:48.585Z,12.30
2019-05-05T17:33:17.773Z,12.00
2019-05-05T17:35:46.947Z,11.69
2019-05-05T17:38:17.000Z,11.36
2019-05-05T17:40:47.120Z,11.01
2019-05-05T17:43:27.872Z,10.68
2019-05-05T17:46:07.000Z,10.40
2019-05-05T17:48:55.613Z,10.11
2019-05-05T17:51:34.698Z,9.88
2019-05-05T17:54:05.128Z,9.69
2019-05-05T17:56:33.718Z,9.57
2019-05-05T17:59:03.475Z,9.48
2019-05-05T18:01:33.582Z,9.39
2019-05-05T18:04:03.996Z,9.32
2019-05-05T18:06:34.388Z,9.30
2019-05-05T18:09:21.072Z,9.32
2019-05-05T18:11:56.958Z,9.43
2019-05-05T18:14:27.383Z,9.66
2019-05-05T18:16:56.238Z,9.82
2019-05-05T18:19:24.862Z,10.04
2019-05-05T18:21:54.767Z,10.18
2019-05-05T18:24:24.261Z,10.23
2019-05-05T18:26:55.928Z,10.25
2019-05-05T18:29:24.401Z,10.22
2019-05-05T18:31:53.561Z,10.16
2019-05-05T18:34:23.570Z,10.04
2019-05-05T18:36:54.430Z,9.92
2019-05-05T18:39:24.729Z,9.76
2019-05-05T18:41:54.887Z,9.61
2019-05-05T18:44:27.940Z,9.48
2019-05-05T18:47:18.370Z,9.35
2019-05-05T18:49:46.479Z,9.24
2019-05-05T18:52:14.924Z,9.14
2019-05-05T18:54:43.741Z,9.05
2019-05-05T18:57:12.398Z,8.95
2019-05-05T18:59:40.835Z,8.85
2019-05-05T19:02:14.408Z,8.74
2019-05-05T19:04:53.741Z,8.64
2019-05-05T19:07:33.706Z,8.57
2019-05-05T19:10:04.056Z,8.51
2019-05-05T19:12:34.529Z,8.45
2019-05-05T19:15:04.409Z,8.40
2019-05-05T19:17:35.191Z,8.33
2019-05-05T19:20:09.429Z,8.25
2019-05-05T19:22:38.871Z,8.19
2019-05-05T19:25:17.049Z,8.13
2019-05-05T19:27:46.757Z,8.07
2019-05-05T19:30:17.520Z,8.03
2019-05-05T19:32:46.591Z,7.98
2019-05-05T19:35:15.886Z,7.92
2019-05-05T19:37:46.143Z,7.84
2019-05-05T19:40:15.609Z,7.79
2019-05-05T19:42:46.321Z,7.74
2019-05-05T19:45:16.181Z,7.70
2019-05-05T19:47:45.099Z,7.67
2019-05-05T19:50:18.340Z,7.63
2019-05-05T19:52:46.932Z,7.57
2019-05-05T19:55:16.022Z,7.50
2019-05-05T19:57:44.722Z,7.45
2019-05-05T20:00:14.580Z,7.41
2019-05-05T20:02:43.912Z,7.36
2019-05-05T20:05:14.422Z,7.31
2019-05-05T20:07:43.910Z,7.25
2019-05-05T20:10:14.699Z,7.19
2019-05-05T20:12:44.877Z,7.17
2019-05-05T20:15:15.391Z,7.15
2019-05-05T20:17:44.492Z,7.15
2019-05-05T20:20:13.955Z,7.16
2019-05-05T20:22:44.443Z,7.16
2019-05-05T20:25:14.125Z,7.18
2019-05-05T20:27:43.063Z,7.20
2019-05-05T20:30:14.069Z,7.21
2019-05-05T20:32:46.584Z,7.22
2019-05-05T20:35:25.584Z,7.23
2019-05-05T20:37:56.018Z,7.20
2019-05-05T20:40:26.093Z,7.16
2019-05-05T20:42:54.522Z,7.17
2019-05-05T20:45:24.623Z,7.15
2019-05-05T20:47:53.657Z,7.14
2019-05-05T20:50:24.729Z,7.15
2019-05-05T20:52:53.721Z,7.17
2019-05-05T20:55:22.137Z,7.19
2019-05-05T20:57:50.559Z,7.17
2019-05-05T21:00:19.381Z,7.13
2019-05-05T21:02:47.797Z,7.09
2019-05-05T21:05:16.277Z,7.06
2019-05-05T21:07:44.823Z,7.00
2019-05-05T21:10:14.373Z,6.98
2019-05-05T21:12:45.641Z,6.94
2019-05-05T21:15:14.121Z,6.90
2019-05-05T21:17:44.800Z,6.89
2019-05-05T21:20:14.506Z,6.88
2019-05-05T21:22:44.886Z,6.89
2019-05-05T21:25:24.041Z,6.90
2019-05-05T21:27:52.450Z,6.91
2019-05-05T21:30:20.892Z,6.91
2019-05-05T21:32:49.332Z,6.92
2019-05-05T21:35:18.155Z,6.89
2019-05-05T21:37:46.608Z,6.85
2019-05-05T21:40:16.074Z,6.83
2019-05-05T21:42:44.669Z,6.82
2019-05-05T21:45:13.256Z,6.81
2019-05-05T21:47:41.679Z,6.82
2019-05-05T21:50:14.314Z,6.86
2019-05-05T21:53:00.636Z,6.90
2019-05-05T21:55:31.190Z,6.92
2019-05-05T21:58:17.805Z,6.91
2019-05-05T22:00:51.099Z,6.94
2019-05-05T22:03:29.923Z,6.99
2019-05-05T22:05:58.861Z,7.03
2019-05-05T22:08:27.290Z,7.05
2019-05-05T22:10:55.714Z,7.07
2019-05-05T22:13:24.160Z,7.09
2019-05-05T22:15:54.583Z,7.12
2019-05-05T22:18:22.971Z,7.16
2019-05-05T22:21:11.165Z,7.16
2019-05-05T22:23:39.683Z,7.14
2019-05-05T22:26:08.112Z,7.11
2019-05-05T22:28:36.554Z,7.06
2019-05-05T22:31:05.002Z,6.99
2019-05-05T22:33:34.177Z,6.94
2019-05-05T22:36:04.421Z,6.88
2019-05-05T22:38:34.020Z,6.82
2019-05-05T22:41:02.494Z,6.77
2019-05-05T22:43:31.888Z,6.72
2019-05-05T22:46:00.372Z,6.66
2019-05-05T22:48:28.790Z,6.62
2019-05-05T22:50:57.250Z,6.58
2019-05-05T22:53:26.040Z,6.49
2019-05-05T22:55:54.471Z,6.44
2019-05-05T22:58:24.020Z,6.38
2019-05-05T23:00:54.724Z,6.31
2019-05-05T23:03:33.707Z,6.27
2019-05-05T23:06:09.810Z,6.24
2019-05-05T23:08:38.226Z,6.19
2019-05-05T23:11:06.953Z,6.13
2019-05-05T23:13:35.387Z,6.10
2019-05-05T23:16:11.698Z,6.07
2019-05-05T23:18:40.571Z,6.07
2019-05-05T23:21:15.621Z,6.09
2019-05-05T23:24:01.046Z,6.13
2019-05-05T23:26:31.107Z,6.15
2019-05-05T23:28:59.558Z,6.13
2019-05-05T23:31:28.194Z,6.10
2019-05-05T23:33:56.842Z,6.10
2019-05-05T23:36:25.255Z,6.12
2019-05-05T23:38:54.888Z,6.12
2019-05-05T23:41:23.992Z,6.13
2019-05-05T23:43:54.315Z,6.10
2019-05-05T23:46:24.131Z,6.05
2019-05-05T23:48:53.724Z,6.00
2019-05-05T23:51:24.273Z,5.97
2019-05-05T23:53:54.857Z,5.95
2019-05-05T23:56:24.078Z,5.93
2019-05-05T23:58:54.948Z,5.91
